Time;durP1;ratioP1;P1;durP2;ratioP2;P2;SDS_P1;SDS_P2;PMS_P1;PMS_P2;Temp;Humidity;BMP_temperature;BMP_pressure;BME280_temperature;BME280_humidity;BME280_pressure;Samples;Min_cycle;Max_cycle;Signal;HPM_P1;HPM_P2
2022/01/07 00:00:34;;;;;;;3.87;2.47;;;;;;;;;;337365;156;856628;-59
2022/01/07 00:03:28;;;;;;;5.88;3.52;;;;;;;2.18;65.84;99229.00;369872;142;972209;-59
2022/01/07 00:04:32;;;;;;;5.40;3.39;;;;;;;2.11;65.63;99225.48;362899;145;858927;-59
2022/01/07 00:05:34;;;;;;;5.29;3.19;;;;;;;2.18;65.63;99229.00;362892;147;864809;-60
2022/01/07 00:06:36;;;;;;;5.42;3.34;;;;;;;2.25;65.49;99233.35;362274;145;858902;-59
2022/01/07 00:07:38;;;;;;;5.04;3.31;;;;;;;2.28;65.15;99230.84;363706;145;859520;-59
2022/01/07 00:08:40;;;;;;;6.83;3.01;;;;;;;2.32;65.16;99229.20;362185;145;866182;-60
2022/01/07 00:09:42;;;;;;;4.74;3.11;;;;;;;2.37;65.19;99232.68;362729;145;858261;-60
2022/01/07 00:10:43;;;;;;;5.09;2.98;;;;;;;2.33;64.61;99230.92;362536;146;859305;-59
2022/01/07 00:11:45;;;;;;;5.45;3.56;;;;;;;2.38;64.94;99229.29;363602;145;859148;-60
2022/01/07 00:12:47;;;;;;;3.27;2.49;;;;;;;2.30;64.64;99228.33;362818;144;867449;-59
2022/01/07 00:13:49;;;;;;;4.89;3.05;;;;;;;2.29;65.24;99236.83;363308;146;866506;-59
2022/01/07 00:14:51;;;;;;;5.91;3.64;;;;;;;2.31;65.32;99241.10;362029;145;857208;-59
2022/01/07 00:15:54;;;;;;;3.67;2.31;;;;;;;2.34;65.31;99237.75;363275;146;864741;-59
2022/01/07 00:16:56;;;;;;;4.31;2.62;;;;;;;2.38;65.33;99248.85;363218;144;865356;-59
2022/01/07 00:17:58;;;;;;;7.83;2.85;;;;;;;2.18;65.29;99240.09;362242;145;857623;-59
2022/01/07 00:19:00;;;;;;;5.33;3.33;;;;;;;2.19;65.69;99246.91;363798;144;866331;-59
2022/01/07 00:20:05;;;;;;;6.20;3.32;;;;;;;2.25;65.61;99251.23;362975;145;857340;-59
2022/01/07 00:21:06;;;;;;;4.84;2.82;;;;;;;2.25;65.50;99247.84;364091;145;864796;-60
2022/01/07 00:22:08;;;;;;;6.55;3.23;;;;;;;2.18;65.13;99247.75;364304;144;857221;-59
2022/01/07 00:23:10;;;;;;;3.70;2.70;;;;;;;2.10;65.64;99248.45;362655;147;857255;-59
2022/01/07 00:24:12;;;;;;;4.29;2.78;;;;;;;;;;363744;146;857197;-59
2022/01/07 00:25:13;;;;;;;5.03;2.19;;;;;;;;;;363481;145;865158;-60
2022/01/07 00:26:16;;;;;;;4.81;3.23;;;;;;;;;;363593;144;857333;-59
2022/01/07 00:27:17;;;;;;;6.60;3.33;;;;;;;;;;363449;146;866785;-59
2022/01/07 00:28:19;;;;;;;4.65;2.79;;;;;;;;;;363696;146;864876;-59
2022/01/07 00:29:20;;;;;;;5.69;2.91;;;;;;;;;;365136;144;857230;-59
2022/01/07 00:30:22;;;;;;;6.05;3.44;;;;;;;;;;365981;146;857313;-59
2022/01/07 00:31:23;;;;;;;4.01;3.13;;;;;;;;;;362757;145;864909;-58
2022/01/07 00:32:25;;;;;;;4.09;2.63;;;;;;;;;;363726;144;857375;-59
2022/01/07 00:33:26;;;;;;;4.92;2.79;;;;;;;;;;363427;146;857119;-59
2022/01/07 00:34:28;;;;;;;4.85;2.51;;;;;;;;;;366119;146;857307;-59
2022/01/07 00:35:29;;;;;;;5.36;2.79;;;;;;;;;;362974;145;858837;-59
2022/01/07 00:36:31;;;;;;;5.29;2.76;;;;;;;;;;362913;144;859350;-59
2022/01/07 00:37:33;;;;;;;3.40;2.70;;;;;;;;;;362855;146;863876;-59
2022/01/07 00:38:34;;;;;;;5.01;2.48;;;;;;;;;;363848;145;859850;-59
2022/01/07 00:39:36;;;;;;;3.98;2.44;;;;;;;;;;362818;144;857197;-59
2022/01/07 00:40:37;;;;;;;3.71;2.58;;;;;;;;;;365580;146;858737;-59
2022/01/07 00:41:39;;;;;;;3.78;2.49;;;;;;;;;;364970;145;864812;-59
2022/01/07 00:42:41;;;;;;;4.36;2.04;;;;;;;;;;364381;144;864911;-59
2022/01/07 00:43:42;;;;;;;3.89;2.68;;;;;;;;;;364537;145;857469;-59
2022/01/07 00:44:44;;;;;;;5.62;3.05;;;;;;;;;;366224;146;865715;-60
2022/01/07 00:45:45;;;;;;;3.31;2.42;;;;;;;;;;363699;146;865128;-60
2022/01/07 00:46:47;;;;;;;6.58;2.56;;;;;;;;;;363080;145;859779;-60
2022/01/07 00:47:48;;;;;;;3.27;2.18;;;;;;;;;;363026;146;866612;-61
2022/01/07 00:48:50;;;;;;;3.58;2.77;;;;;;;;;;362465;146;859049;-60
2022/01/07 00:49:51;;;;;;;5.03;2.75;;;;;;;;;;362621;144;861420;-60
2022/01/07 00:50:53;;;;;;;4.46;2.86;;;;;;;;;;364390;144;857159;-60
2022/01/07 00:51:56;;;;;;;4.83;2.66;;;;;;;;;;362458;146;857306;-60
2022/01/07 00:52:58;;;;;;;5.42;2.96;;;;;;;;;;362628;145;857396;-60
2022/01/07 00:54:00;;;;;;;5.19;2.69;;;;;;;;;;368039;144;861117;-60
2022/01/07 00:55:01;;;;;;;4.24;2.64;;;;;;;;;;364070;144;865794;-60
2022/01/07 00:56:03;;;;;;;4.26;2.89;;;;;;;;;;363763;145;859074;-60
2022/01/07 00:57:05;;;;;;;4.36;2.31;;;;;;;;;;364941;144;864867;-60
2022/01/07 00:58:06;;;;;;;4.73;3.26;;;;;;;;;;362882;145;861519;-60
2022/01/07 00:59:08;;;;;;;5.11;2.59;;;;;;;;;;362863;145;857076;-60
2022/01/07 01:00:11;;;;;;;3.24;2.23;;;;;;;;;;362486;145;857209;-58
2022/01/07 01:01:13;;;;;;;4.54;2.66;;;;;;;;;;363006;144;857539;-59
2022/01/07 01:02:14;;;;;;;4.73;2.76;;;;;;;;;;355523;149;866842;-59
2022/01/07 01:03:16;;;;;;;4.93;2.89;;;;;;;;;;362673;145;864945;-59
2022/01/07 01:04:18;;;;;;;2.73;1.88;;;;;;;;;;365109;144;864878;-59
2022/01/07 01:05:20;;;;;;;4.77;2.49;;;;;;;;;;362581;146;859443;-59
2022/01/07 01:06:22;;;;;;;4.41;2.97;;;;;;;;;;362768;148;857400;-59
2022/01/07 01:07:23;;;;;;;3.74;2.04;;;;;;;;;;362601;145;857288;-59
2022/01/07 01:08:27;;;;;;;4.81;3.02;;;;;;;;;;365951;144;857240;-59
2022/01/07 01:09:28;;;;;;;6.07;2.49;;;;;;;;;;362455;146;866668;-59
2022/01/07 01:10:30;;;;;;;5.30;2.39;;;;;;;;;;363930;145;857542;-59
2022/01/07 01:11:31;;;;;;;3.92;2.89;;;;;;;;;;363929;144;857726;-59
2022/01/07 01:12:34;;;;;;;4.16;3.05;;;;;;;;;;365421;146;856597;-59
2022/01/07 01:13:35;;;;;;;4.13;2.24;;;;;;;;;;362634;145;858161;-59
2022/01/07 01:14:37;;;;;;;4.51;2.96;;;;;;;;;;363538;144;866335;-59
2022/01/07 01:15:38;;;;;;;4.78;2.96;;;;;;;;;;363398;146;857296;-60
2022/01/07 01:16:40;;;;;;;3.24;2.37;;;;;;;;;;364189;145;864865;-58
2022/01/07 01:17:41;;;;;;;3.25;2.56;;;;;;;;;;363337;144;857406;-59
2022/01/07 01:18:43;;;;;;;3.37;2.60;;;;;;;;;;363758;145;857256;-59
2022/01/07 01:19:44;;;;;;;3.83;2.56;;;;;;;;;;363265;146;857210;-60
2022/01/07 01:20:46;;;;;;;3.31;2.29;;;;;;;;;;362987;145;857275;-59
2022/01/07 01:21:48;;;;;;;3.39;2.21;;;;;;;;;;363359;144;866290;-59
2022/01/07 01:22:50;;;;;;;3.97;2.39;;;;;;;;;;362601;146;865894;-59
2022/01/07 01:23:51;;;;;;;4.29;2.26;;;;;;;;;;363790;145;857221;-59
2022/01/07 01:24:53;;;;;;;3.70;2.26;;;;;;;;;;363146;145;865400;-59
2022/01/07 01:25:54;;;;;;;3.99;2.67;;;;;;;;;;362602;145;857309;-59
2022/01/07 01:26:56;;;;;;;2.39;1.90;;;;;;;;;;362909;146;857244;-59
2022/01/07 01:27:57;;;;;;;2.85;2.09;;;;;;;;;;362534;145;857412;-59
2022/01/07 01:28:59;;;;;;;3.68;2.36;;;;;;;;;;363098;145;857177;-59
2022/01/07 01:30:02;;;;;;;4.02;2.60;;;;;;;;;;362565;146;864775;-59
2022/01/07 01:31:03;;;;;;;2.88;2.26;;;;;;;;;;362769;145;857313;-60
2022/01/07 01:32:05;;;;;;;3.09;2.61;;;;;;;;;;362953;144;858606;-60
2022/01/07 01:33:07;;;;;;;3.00;2.51;;;;;;;;;;367418;146;857077;-60
2022/01/07 01:34:08;;;;;;;3.84;2.26;;;;;;;;;;362911;145;864604;-60
2022/01/07 01:35:10;;;;;;;3.23;2.36;;;;;;;;;;363695;145;858135;-60
2022/01/07 01:36:13;;;;;;;3.09;1.96;;;;;;;;;;362742;145;866394;-60
2022/01/07 01:37:14;;;;;;;4.19;2.46;;;;;;;;;;363027;146;865805;-60
2022/01/07 01:38:16;;;;;;;3.74;2.26;;;;;;;;;;363075;145;864909;-60
2022/01/07 01:39:17;;;;;;;4.01;2.51;;;;;;;;;;365600;144;857439;-60
2022/01/07 01:40:19;;;;;;;2.59;1.97;;;;;;;;;;364599;146;857227;-60
2022/01/07 01:41:21;;;;;;;3.46;2.76;;;;;;;;;;367156;145;864610;-60
2022/01/07 01:42:23;;;;;;;3.89;2.57;;;;;;;;;;363016;145;856248;-60
2022/01/07 01:43:24;;;;;;;1.90;1.69;;;;;;;;;;363246;144;865008;-60
2022/01/07 01:44:26;;;;;;;3.45;2.69;;;;;;;;;;362636;148;857257;-59
2022/01/07 01:57:28;;;;;;;4.11;2.51;;;;;;;1.64;64.25;99342.98;378533;141;881254;-61
2022/01/07 01:58:30;;;;;;;2.32;1.98;;;;;;;1.62;64.36;99337.00;366133;147;857045;-59
2022/01/07 01:59:32;;;;;;;2.16;1.86;;;;;;;1.70;64.41;99340.55;367086;144;858880;-59
2022/01/07 02:00:34;;;;;;;5.06;2.07;;;;;;;1.62;64.06;99342.10;367016;144;864946;-59
2022/01/07 02:01:36;;;;;;;3.55;2.40;;;;;;;1.69;63.98;99336.27;367034;144;864871;-59
2022/01/07 02:02:38;;;;;;;3.59;2.31;;;;;;;1.74;63.99;99348.30;366746;144;864776;-59
2022/01/07 02:03:40;;;;;;;5.21;2.79;;;;;;;1.66;63.98;99343.88;367708;144;859473;-59
2022/01/07 02:04:42;;;;;;;6.07;2.86;;;;;;;1.72;63.60;99338.88;367380;144;857817;-59
2022/01/07 02:05:45;;;;;;;4.41;2.11;;;;;;;1.77;63.63;99346.64;365921;144;865743;-59
2022/01/07 02:06:46;;;;;;;4.09;2.65;;;;;;;1.71;63.47;99338.04;366860;144;858232;-60
2022/01/07 02:07:48;;;;;;;4.79;2.41;;;;;;;1.64;63.83;99345.54;367254;144;857618;-59
2022/01/07 02:08:50;;;;;;;3.06;1.99;;;;;;;1.70;63.75;99350.76;366088;144;866379;-60
2022/01/07 02:09:52;;;;;;;5.29;2.94;;;;;;;;;;366747;144;864693;-62
2022/01/07 02:10:55;;;;;;;6.03;2.29;;;;;;;;;;368687;144;864808;-59
2022/01/07 02:11:56;;;;;;;3.77;2.07;;;;;;;;;;368087;144;857261;-60
2022/01/07 02:12:58;;;;;;;3.66;2.53;;;;;;;;;;367984;144;857227;-59
2022/01/07 02:13:59;;;;;;;3.59;1.65;;;;;;;;;;367436;144;857302;-59
2022/01/07 02:15:01;;;;;;;3.36;2.26;;;;;;;;;;366882;144;857050;-59
2022/01/07 02:16:03;;;;;;;3.58;2.25;;;;;;;;;;366419;144;857226;-60
2022/01/07 02:17:08;;;;;;;4.26;2.32;;;;;;;;;;368606;144;866503;-59
2022/01/07 02:18:09;;;;;;;4.21;2.28;;;;;;;;;;365961;144;864870;-60
2022/01/07 02:19:11;;;;;;;6.01;3.23;;;;;;;;;;367733;144;860018;-60
2022/01/07 02:22:48;;;;;;;2.77;1.89;;;;;;;1.74;64.39;99352.53;371874;142;882120;-61
2022/01/07 02:23:50;;;;;;;4.07;2.43;;;;;;;1.69;64.28;99365.23;364434;147;857132;-59
2022/01/07 02:24:52;;;;;;;3.17;2.09;;;;;;;1.55;64.49;99356.42;364771;145;858925;-59
2022/01/07 02:25:55;;;;;;;3.03;2.21;;;;;;;1.53;64.51;99361.52;364043;147;857383;-59
2022/01/07 02:26:57;;;;;;;3.55;1.97;;;;;;;1.63;64.48;99364.23;364857;147;857269;-59
2022/01/07 02:27:59;;;;;;;3.36;2.34;;;;;;;1.65;64.51;99367.67;364958;145;857082;-59
2022/01/07 02:29:01;;;;;;;3.13;2.23;;;;;;;;;;364456;147;865011;-59
2022/01/07 02:30:03;;;;;;;3.43;2.18;;;;;;;;;;359326;147;864725;-59
2022/01/07 02:31:04;;;;;;;3.40;2.13;;;;;;;;;;365088;147;857806;-59
2022/01/07 02:32:06;;;;;;;3.37;2.06;;;;;;;;;;365261;145;864554;-59
2022/01/07 02:33:08;;;;;;;3.31;2.19;;;;;;;;;;360720;146;857281;-59
2022/01/07 02:34:09;;;;;;;3.61;1.89;;;;;;;;;;364775;147;857139;-59
2022/01/07 02:35:11;;;;;;;2.92;1.53;;;;;;;;;;363985;145;857274;-58
2022/01/07 02:36:13;;;;;;;2.35;1.43;;;;;;;;;;363438;145;857521;-59
2022/01/07 02:37:14;;;;;;;1.60;1.41;;;;;;;;;;364674;146;857683;-59
2022/01/07 02:38:16;;;;;;;2.08;1.71;;;;;;;;;;362676;147;859255;-59
2022/01/07 02:39:18;;;;;;;2.14;1.54;;;;;;;;;;365059;145;867839;-59
2022/01/07 02:40:20;;;;;;;2.89;1.59;;;;;;;;;;357723;149;859588;-57
2022/01/07 02:41:23;;;;;;;2.35;1.66;;;;;;;;;;365000;145;858052;-60
2022/01/07 02:42:25;;;;;;;2.85;1.78;;;;;;;;;;361379;146;867062;-60
2022/01/07 02:43:27;;;;;;;2.70;1.74;;;;;;;;;;365488;147;857153;-60
2022/01/07 02:44:28;;;;;;;1.73;1.36;;;;;;;;;;365466;146;865281;-60
2022/01/07 02:45:29;;;;;;;1.34;1.23;;;;;;;;;;365017;145;858865;-60
2022/01/07 02:46:31;;;;;;;1.48;1.11;;;;;;;;;;365963;147;859033;-60
2022/01/07 02:47:41;;;;;;;1.27;1.10;;;;;;;;;;361991;147;866232;-60
2022/01/07 02:48:36;;;;;;;1.02;1.00;;;;;;;;;;365174;145;857494;-60
2022/01/07 02:49:37;;;;;;;1.99;1.10;;;;;;;;;;363741;145;857163;-60
2022/01/07 02:50:39;;;;;;;1.46;1.20;;;;;;;;;;362450;147;857025;-60
2022/01/07 02:51:42;;;;;;;1.84;1.30;;;;;;;;;;364569;146;866529;-59
2022/01/07 02:52:44;;;;;;;5.69;1.42;;;;;;;;;;363183;145;866265;-60
2022/01/07 02:53:45;;;;;;;1.63;1.16;;;;;;;;;;365216;147;857268;-60
2022/01/07 02:54:47;;;;;;;8.25;1.03;;;;;;;;;;365814;147;857211;-60
2022/01/07 02:55:50;;;;;;;3.21;1.00;;;;;;;;;;362115;146;859161;-60
2022/01/07 02:56:52;;;;;;;1.33;0.93;;;;;;;;;;365295;145;858370;-60
2022/01/07 02:57:53;;;;;;;1.16;0.84;;;;;;;;;;364562;147;857268;-59
2022/01/07 02:58:55;;;;;;;0.92;0.80;;;;;;;;;;364029;147;865559;-60
2022/01/07 02:59:56;;;;;;;1.13;0.79;;;;;;;;;;356381;149;858760;-60
2022/01/07 03:00:58;;;;;;;1.01;0.79;;;;;;;;;;363988;147;857854;-59
2022/01/07 03:01:59;;;;;;;0.82;0.60;;;;;;;;;;363437;147;866523;-60
2022/01/07 03:03:01;;;;;;;1.52;0.69;;;;;;;;;;364866;146;858247;-59
2022/01/07 03:04:03;;;;;;;1.67;0.69;;;;;;;;;;363564;147;861704;-58
2022/01/07 03:05:05;;;;;;;0.99;0.73;;;;;;;;;;362513;147;859434;-58
2022/01/07 03:06:07;;;;;;;1.03;0.81;;;;;;;;;;363231;147;858926;-59
2022/01/07 03:07:09;;;;;;;0.68;0.66;;;;;;;;;;364584;145;857158;-59
2022/01/07 03:08:11;;;;;;;0.96;0.67;;;;;;;;;;365689;147;859281;-59
2022/01/07 03:09:12;;;;;;;1.94;0.89;;;;;;;;;;363202;147;859434;-59
2022/01/07 03:10:18;;;;;;;1.22;0.81;;;;;;;;;;362181;146;857859;-59
2022/01/07 03:11:20;;;;;;;2.67;1.41;;;;;;;;;;364574;147;860248;-59
2022/01/07 03:12:21;;;;;;;1.58;0.68;;;;;;;;;;364232;147;859442;-59
2022/01/07 03:13:23;;;;;;;1.06;0.64;;;;;;;;;;365319;145;856512;-60
2022/01/07 03:14:25;;;;;;;0.68;0.64;;;;;;;;;;364836;147;857362;-59
2022/01/07 03:15:27;;;;;;;1.07;0.70;;;;;;;;;;362836;147;857299;-59
2022/01/07 03:16:28;;;;;;;0.93;0.79;;;;;;;;;;365559;144;857074;-59
2022/01/07 03:17:30;;;;;;;2.01;1.52;;;;;;;;;;363528;146;858182;-58
2022/01/07 03:18:31;;;;;;;0.99;0.71;;;;;;;;;;363462;146;857348;-59
2022/01/07 03:19:33;;;;;;;0.56;0.55;;;;;;;;;;364523;147;860232;-59
2022/01/07 03:20:38;;;;;;;1.41;0.67;;;;;;;;;;364122;145;858669;-60
2022/01/07 03:21:38;;;;;;;0.80;0.80;;;;;;;;;;361061;147;865773;-60
2022/01/07 03:22:40;;;;;;;0.93;0.64;;;;;;;;;;365090;146;857149;-60
2022/01/07 03:23:41;;;;;;;0.98;0.70;;;;;;;;;;364642;147;865596;-60
2022/01/07 03:24:43;;;;;;;1.19;0.70;;;;;;;;;;365531;145;859783;-59
2022/01/07 03:25:44;;;;;;;0.83;0.80;;;;;;;;;;364790;147;858789;-60
2022/01/07 03:26:46;;;;;;;1.15;0.84;;;;;;;;;;363551;147;857955;-59
2022/01/07 03:27:47;;;;;;;0.95;0.65;;;;;;;;;;365498;145;857257;-57
2022/01/07 03:28:49;;;;;;;1.02;0.94;;;;;;;;;;365762;147;866384;-60
2022/01/07 03:29:50;;;;;;;0.86;0.80;;;;;;;;;;362284;144;859017;-60
2022/01/07 03:30:52;;;;;;;1.01;0.81;;;;;;;;;;365647;144;859601;-59
2022/01/07 03:31:55;;;;;;;1.46;0.70;;;;;;;;;;360617;147;857253;-60
2022/01/07 03:32:57;;;;;;;0.90;0.71;;;;;;;;;;362367;145;857232;-60
2022/01/07 03:33:58;;;;;;;1.41;0.91;;;;;;;;;;363704;147;857222;-60
2022/01/07 03:34:59;;;;;;;1.14;1.03;;;;;;;;;;363725;145;857132;-59
2022/01/07 03:36:01;;;;;;;0.63;0.56;;;;;;;;;;361317;147;857211;-60
2022/01/07 03:37:03;;;;;;;1.36;0.82;;;;;;;;;;363613;147;864933;-59
2022/01/07 03:38:05;;;;;;;1.79;1.00;;;;;;;;;;362932;146;857363;-58
2022/01/07 03:39:08;;;;;;;2.69;0.80;;;;;;;;;;361010;147;858068;-59
2022/01/07 03:40:11;;;;;;;1.01;0.86;;;;;;;;;;364019;147;864730;-59
2022/01/07 03:41:13;;;;;;;1.14;0.95;;;;;;;;;;363613;146;867009;-60
2022/01/07 03:42:14;;;;;;;1.66;0.90;;;;;;;;;;365466;145;858943;-60
2022/01/07 03:43:16;;;;;;;1.21;1.04;;;;;;;;;;363610;147;866746;-60
2022/01/07 03:44:17;;;;;;;0.96;0.81;;;;;;;;;;362958;147;858243;-60
2022/01/07 03:45:19;;;;;;;0.99;0.84;;;;;;;;;;365079;146;857233;-59
2022/01/07 03:46:21;;;;;;;1.89;1.11;;;;;;;;;;363521;147;866747;-60
2022/01/07 03:47:22;;;;;;;1.35;0.95;;;;;;;;;;363702;146;857728;-59
2022/01/07 03:48:24;;;;;;;1.53;0.86;;;;;;;;;;364275;146;857579;-60
2022/01/07 03:49:25;;;;;;;1.08;0.92;;;;;;;;;;365302;145;857112;-59
2022/01/07 03:50:27;;;;;;;1.52;0.99;;;;;;;;;;364138;147;857245;-59
2022/01/07 03:51:29;;;;;;;1.84;1.09;;;;;;;;;;353273;150;864695;-60
2022/01/07 03:52:30;;;;;;;1.39;0.90;;;;;;;;;;353188;149;864746;-59
2022/01/07 03:53:32;;;;;;;1.39;1.01;;;;;;;;;;363417;145;857424;-58
2022/01/07 03:54:33;;;;;;;0.98;0.80;;;;;;;;;;364055;147;857370;-59
2022/01/07 03:55:35;;;;;;;1.16;1.01;;;;;;;;;;364036;145;858251;-59
2022/01/07 03:56:36;;;;;;;1.01;0.94;;;;;;;;;;364170;147;858330;-59
2022/01/07 03:57:38;;;;;;;0.96;0.81;;;;;;;;;;361426;147;866780;-59
2022/01/07 03:58:39;;;;;;;0.94;0.85;;;;;;;;;;363803;146;858918;-59
2022/01/07 03:59:41;;;;;;;2.47;1.66;;;;;;;;;;363482;146;859757;-59
2022/01/07 04:00:43;;;;;;;1.39;0.99;;;;;;;;;;363331;147;857239;-59
2022/01/07 04:01:44;;;;;;;1.01;0.90;;;;;;;;;;365434;144;857651;-61
2022/01/07 04:02:46;;;;;;;2.13;0.84;;;;;;;;;;365246;144;858787;-60
2022/01/07 04:03:47;;;;;;;1.42;0.89;;;;;;;;;;363440;146;865995;-59
2022/01/07 04:04:49;;;;;;;0.89;0.79;;;;;;;;;;362465;147;859639;-60
2022/01/07 04:05:51;;;;;;;1.69;1.05;;;;;;;;;;365022;144;859460;-59
2022/01/07 04:06:53;;;;;;;1.15;0.99;;;;;;;;;;356646;149;859980;-59
2022/01/07 04:07:54;;;;;;;2.05;0.92;;;;;;;;;;363340;147;865923;-60
2022/01/07 04:08:56;;;;;;;1.01;0.84;;;;;;;;;;363495;147;857186;-59
2022/01/07 04:09:58;;;;;;;0.82;0.80;;;;;;;;;;364118;145;857259;-59
2022/01/07 04:11:00;;;;;;;1.14;0.81;;;;;;;;;;365404;147;857395;-60
2022/01/07 04:12:02;;;;;;;2.21;1.07;;;;;;;;;;364782;147;857311;-59
2022/01/07 04:13:03;;;;;;;2.53;1.06;;;;;;;;;;364045;146;857569;-60
2022/01/07 04:14:05;;;;;;;1.16;0.89;;;;;;;;;;364504;147;865788;-59
2022/01/07 04:15:09;;;;;;;1.05;0.80;;;;;;;;;;362074;147;858164;-60
2022/01/07 04:16:11;;;;;;;1.59;0.91;;;;;;;;;;363234;147;862133;-59
2022/01/07 04:17:13;;;;;;;2.54;0.74;;;;;;;;;;364532;147;857795;-59
2022/01/07 04:18:14;;;;;;;1.09;0.60;;;;;;;;;;364324;147;866551;-58
2022/01/07 04:19:16;;;;;;;0.99;0.76;;;;;;;;;;356894;149;859290;-59
2022/01/07 04:20:19;;;;;;;1.57;0.89;;;;;;;;;;363521;145;867152;-58
2022/01/07 04:21:21;;;;;;;2.10;1.72;;;;;;;;;;364394;147;858740;-59
2022/01/07 04:22:23;;;;;;;0.96;0.90;;;;;;;;;;362709;147;858176;-58
2022/01/07 04:23:24;;;;;;;1.10;0.86;;;;;;;;;;356766;149;867761;-59
2022/01/07 04:24:26;;;;;;;2.54;1.06;;;;;;;;;;354941;148;864627;-59
2022/01/07 04:25:28;;;;;;;0.84;0.78;;;;;;;;;;355155;149;857171;-59
2022/01/07 04:26:29;;;;;;;0.87;0.82;;;;;;;;;;363932;146;864764;-58
2022/01/07 04:27:31;;;;;;;2.06;0.90;;;;;;;;;;365376;145;857060;-58
2022/01/07 04:28:33;;;;;;;1.14;0.76;;;;;;;;;;363868;147;857354;-60
2022/01/07 04:29:34;;;;;;;0.87;0.79;;;;;;;;;;363885;146;866146;-60
2022/01/07 04:30:37;;;;;;;0.88;0.82;;;;;;;;;;362752;146;865634;-68
2022/01/07 04:31:38;;;;;;;0.95;0.83;;;;;;;;;;360973;147;865747;-59
2022/01/07 04:32:42;;;;;;;1.06;0.70;;;;;;;;;;365596;146;857262;-61
2022/01/07 04:33:43;;;;;;;1.35;0.87;;;;;;;;;;364624;144;858687;-60
2022/01/07 04:34:45;;;;;;;0.84;0.75;;;;;;;;;;362487;147;857656;-61
2022/01/07 04:35:46;;;;;;;1.36;1.06;;;;;;;;;;364691;147;857073;-59
2022/01/07 04:36:48;;;;;;;1.39;1.08;;;;;;;;;;364383;147;857173;-60
2022/01/07 04:37:49;;;;;;;1.15;0.91;;;;;;;;;;364375;146;864770;-59
2022/01/07 04:38:51;;;;;;;1.36;0.96;;;;;;;;;;363582;147;863629;-59
2022/01/07 04:39:52;;;;;;;1.15;0.80;;;;;;;;;;364409;147;857163;-59
2022/01/07 04:40:54;;;;;;;1.17;1.06;;;;;;;;;;363535;146;857262;-61
2022/01/07 04:41:59;;;;;;;1.65;0.83;;;;;;;;;;365689;147;866977;-60
2022/01/07 04:43:00;;;;;;;1.77;1.07;;;;;;;;;;363116;145;859090;-60
2022/01/07 04:44:01;;;;;;;1.39;0.99;;;;;;;;;;364357;147;864965;-59
2022/01/07 04:45:04;;;;;;;0.89;0.72;;;;;;;;;;364269;145;858754;-60
2022/01/07 04:46:05;;;;;;;2.59;1.00;;;;;;;;;;362327;147;858229;-61
2022/01/07 04:47:07;;;;;;;0.99;0.88;;;;;;;;;;363307;144;866466;-60
2022/01/07 04:48:09;;;;;;;1.74;1.20;;;;;;;;;;364207;144;864863;-60
2022/01/07 04:49:10;;;;;;;1.34;1.10;;;;;;;;;;364128;147;858315;-59
2022/01/07 04:50:13;;;;;;;2.14;1.13;;;;;;;;;;364348;147;857448;-59
2022/01/07 04:51:15;;;;;;;1.48;0.85;;;;;;;;;;364438;145;857891;-61
2022/01/07 04:52:17;;;;;;;1.52;1.13;;;;;;;;;;364679;146;865667;-60
2022/01/07 04:53:19;;;;;;;3.84;1.30;;;;;;;;;;363705;147;857291;-60
2022/01/07 04:54:20;;;;;;;5.60;1.69;;;;;;;;;;363892;147;858362;-60
2022/01/07 04:55:23;;;;;;;1.49;1.31;;;;;;;;;;365434;146;864959;-60
2022/01/07 04:56:25;;;;;;;2.26;1.32;;;;;;;;;;361245;147;857559;-60
2022/01/07 04:57:26;;;;;;;3.49;1.54;;;;;;;;;;362686;147;857126;-59
2022/01/07 04:58:28;;;;;;;1.73;1.39;;;;;;;;;;364501;145;857283;-60
2022/01/07 04:59:29;;;;;;;0.98;0.85;;;;;;;;;;360512;147;858340;-60
2022/01/07 05:00:31;;;;;;;3.44;1.19;;;;;;;;;;361996;145;859380;-59
2022/01/07 05:01:33;;;;;;;1.49;1.34;;;;;;;;;;364963;146;860366;-60
2022/01/07 05:02:35;;;;;;;2.26;1.24;;;;;;;;;;363513;146;866013;-59
2022/01/07 05:03:36;;;;;;;3.38;0.99;;;;;;;;;;360483;147;863189;-60
2022/01/07 05:04:38;;;;;;;2.38;1.34;;;;;;;;;;364118;146;857208;-59
2022/01/07 05:05:41;;;;;;;2.01;1.23;;;;;;;;;;365732;145;857335;-62
2022/01/07 05:06:47;;;;;;;2.44;1.19;;;;;;;;;;364768;147;857267;-63
2022/01/07 05:07:49;;;;;;;1.84;1.31;;;;;;;;;;363715;147;859684;-62
2022/01/07 05:08:50;;;;;;;1.41;1.07;;;;;;;;;;364231;146;859129;-60
2022/01/07 05:09:52;;;;;;;2.51;1.31;;;;;;;;;;363465;146;865048;-60
2022/01/07 05:10:53;;;;;;;2.22;1.24;;;;;;;;;;364379;147;862435;-61
2022/01/07 05:11:55;;;;;;;1.32;1.21;;;;;;;;;;364856;144;865507;-60
2022/01/07 05:12:56;;;;;;;2.07;1.44;;;;;;;;;;364215;145;858097;-61
2022/01/07 05:13:58;;;;;;;2.01;1.19;;;;;;;;;;364331;147;860239;-60
2022/01/07 05:14:59;;;;;;;1.31;1.21;;;;;;;;;;364265;145;858857;-64
2022/01/07 05:16:01;;;;;;;1.31;1.14;;;;;;;;;;366366;144;864723;-61
2022/01/07 05:17:03;;;;;;;1.68;1.17;;;;;;;;;;362956;147;864888;-68
2022/01/07 05:18:04;;;;;;;1.57;1.13;;;;;;;;;;365683;147;857668;-65
2022/01/07 05:19:06;;;;;;;1.86;1.10;;;;;;;;;;364069;147;864959;-64
2022/01/07 05:20:09;;;;;;;1.03;0.90;;;;;;;;;;365480;146;864658;-65
2022/01/07 05:21:10;;;;;;;1.68;1.07;;;;;;;;;;364779;147;857236;-62
2022/01/07 05:22:12;;;;;;;2.26;0.79;;;;;;;;;;364424;144;859428;-63
2022/01/07 05:23:14;;;;;;;2.43;0.76;;;;;;;;;;364050;146;862479;-62
2022/01/07 05:24:15;;;;;;;0.69;0.65;;;;;;;;;;361130;147;866740;-64
2022/01/07 05:25:17;;;;;;;1.21;0.94;;;;;;;;;;359571;148;858861;-65
2022/01/07 05:26:18;;;;;;;0.85;0.80;;;;;;;;;;358642;147;859411;-65
2022/01/07 05:27:20;;;;;;;0.49;0.49;;;;;;;;;;355401;147;859652;-63
2022/01/07 05:28:21;;;;;;;0.71;0.66;;;;;;;;;;358655;148;857515;-64
2022/01/07 05:29:23;;;;;;;0.70;0.70;;;;;;;;;;358509;147;856342;-64
2022/01/07 05:30:25;;;;;;;0.72;0.57;;;;;;;;;;358849;147;857245;-65
2022/01/07 05:31:26;;;;;;;0.59;0.59;;;;;;;;;;360400;148;857175;-64
2022/01/07 05:32:28;;;;;;;1.41;0.81;;;;;;;;;;360434;148;857415;-63
2022/01/07 05:33:29;;;;;;;1.01;0.59;;;;;;;;;;359506;147;858901;-63
2022/01/07 05:34:31;;;;;;;0.50;0.50;;;;;;;;;;358083;148;858105;-66
2022/01/07 05:35:32;;;;;;;1.07;0.60;;;;;;;;;;360529;148;865409;-64
2022/01/07 05:36:34;;;;;;;0.64;0.62;;;;;;;;;;359821;146;865295;-66
2022/01/07 05:37:35;;;;;;;0.89;0.70;;;;;;;;;;360557;147;857418;-65
2022/01/07 05:38:37;;;;;;;0.59;0.59;;;;;;;;;;355383;148;864766;-64
2022/01/07 05:39:39;;;;;;;0.72;0.60;;;;;;;;;;357361;147;857258;-63
2022/01/07 05:40:40;;;;;;;1.13;0.60;;;;;;;;;;360685;147;859361;-62
2022/01/07 05:41:42;;;;;;;0.50;0.50;;;;;;;;;;358479;148;857214;-61
2022/01/07 05:42:44;;;;;;;0.64;0.60;;;;;;;;;;343937;152;864919;-60
2022/01/07 05:43:45;;;;;;;0.60;0.60;;;;;;;;;;352983;151;857444;-63
2022/01/07 05:44:47;;;;;;;0.87;0.51;;;;;;;;;;350408;150;857345;-66
2022/01/07 05:45:49;;;;;;;0.95;0.70;;;;;;;;;;349676;151;856209;-64
2022/01/07 05:46:51;;;;;;;0.76;0.56;;;;;;;;;;353518;151;859715;-65
2022/01/07 05:47:52;;;;;;;0.72;0.60;;;;;;;;;;351185;151;866668;-62
2022/01/07 05:48:53;;;;;;;0.84;0.63;;;;;;;;;;349403;152;865718;-65
2022/01/07 05:49:55;;;;;;;1.28;0.58;;;;;;;;;;350243;151;859490;-63
2022/01/07 05:50:57;;;;;;;0.68;0.56;;;;;;;;;;351588;150;865484;-62
2022/01/07 05:51:58;;;;;;;0.85;0.50;;;;;;;;;;349766;151;864724;-63
2022/01/07 05:53:00;;;;;;;1.61;0.68;;;;;;;;;;346433;155;857183;-64
2022/01/07 05:54:01;;;;;;;1.09;0.70;;;;;;;;;;347396;151;857467;-63
2022/01/07 05:55:03;;;;;;;0.54;0.50;;;;;;;;;;347211;152;861599;-64
2022/01/07 05:56:05;;;;;;;1.73;0.77;;;;;;;;;;354707;151;861762;-64
2022/01/07 05:57:06;;;;;;;1.14;0.55;;;;;;;;;;349654;150;858786;-64
2022/01/07 05:58:08;;;;;;;1.12;0.57;;;;;;;;;;352950;150;865248;-66
2022/01/07 05:59:10;;;;;;;1.11;0.60;;;;;;;;;;353936;151;858155;-62
2022/01/07 06:00:12;;;;;;;1.45;0.51;;;;;;;;;;352660;150;863094;-66
2022/01/07 06:01:14;;;;;;;2.71;0.64;;;;;;;;;;351564;151;858759;-66
2022/01/07 06:02:15;;;;;;;1.29;0.68;;;;;;;;;;352800;150;866208;-66
2022/01/07 06:03:17;;;;;;;0.81;0.57;;;;;;;;;;353298;151;857711;-65
2022/01/07 06:04:18;;;;;;;0.79;0.64;;;;;;;;;;352516;150;864889;-60
2022/01/07 06:05:20;;;;;;;1.11;0.77;;;;;;;;;;352768;150;857301;-65
2022/01/07 06:06:22;;;;;;;0.91;0.77;;;;;;;;;;350176;151;857246;-61
2022/01/07 06:07:23;;;;;;;0.83;0.62;;;;;;;;;;352991;150;856503;-64
2022/01/07 06:08:25;;;;;;;1.36;0.79;;;;;;;;;;352831;150;857543;-64
2022/01/07 06:09:26;;;;;;;0.77;0.77;;;;;;;;;;353257;150;858798;-62
2022/01/07 06:10:28;;;;;;;1.47;0.74;;;;;;;;;;353423;151;858967;-60
2022/01/07 06:11:29;;;;;;;0.71;0.56;;;;;;;;;;351284;150;858195;-61